createdAt,value
2023-05-04T00:02:21.544Z,85908.69
2023-05-04T00:04:52.117Z,85942.41
2023-05-04T00:07:20.376Z,85892.78
2023-05-04T00:09:47.392Z,85850.88
2023-05-04T00:12:14.343Z,85940.22
2023-05-04T00:14:41.338Z,85947.78
2023-05-04T00:17:08.963Z,85889.41
2023-05-04T00:19:36.613Z,85907.84
2023-05-04T00:22:03.660Z,85883.16
2023-05-04T00:24:30.683Z,85942.16
2023-05-04T00:26:57.624Z,85952.59
2023-05-04T00:29:24.700Z,85910.03
2023-05-04T00:31:51.871Z,85919.72
2023-05-04T00:34:18.892Z,85961.63
2023-05-04T00:36:46.920Z,85959.53
2023-05-04T00:39:14.139Z,85964.47
2023-05-04T00:41:41.348Z,85946.13
2023-05-04T00:44:08.719Z,85925.56
2023-05-04T00:46:37.764Z,85957.19
2023-05-04T00:49:06.375Z,85970.88
2023-05-04T00:51:34.509Z,85911.84
2023-05-04T00:54:04.351Z,85959.88
2023-05-04T00:56:32.751Z,85930.53
2023-05-04T00:58:59.736Z,85965.53
2023-05-04T01:01:26.996Z,85958.66
2023-05-04T01:03:55.385Z,85961.47
2023-05-04T01:07:08.712Z,85960.69
2023-05-04T01:09:50.288Z,85954.75
2023-05-04T01:12:26.684Z,85928.50
2023-05-04T01:14:55.314Z,85899.75
2023-05-04T01:17:22.573Z,85951.13
2023-05-04T01:19:51.236Z,85898.28
2023-05-04T01:22:18.254Z,85901.03
2023-05-04T01:24:45.701Z,85942.19
2023-05-04T01:27:27.129Z,85936.00
2023-05-04T01:30:00.190Z,85940.84
2023-05-04T01:32:28.854Z,85939.53
2023-05-04T01:34:58.745Z,85942.22
2023-05-04T01:37:26.556Z,85946.34
2023-05-04T01:39:53.624Z,85898.25
2023-05-04T01:42:20.659Z,85942.22
2023-05-04T01:44:47.726Z,85876.25
2023-05-04T01:47:14.774Z,85910.63
2023-05-04T01:49:41.826Z,85886.72
2023-05-04T01:52:09.991Z,85935.47
2023-05-04T01:54:37.165Z,85938.16
2023-05-04T01:57:04.267Z,85848.31
2023-05-04T01:59:31.833Z,85935.41
2023-05-04T02:01:58.974Z,85881.84
2023-05-04T02:04:27.168Z,85891.50
2023-05-04T02:06:54.122Z,85824.22
2023-05-04T02:09:21.524Z,85938.19
2023-05-04T02:11:48.471Z,85946.47
2023-05-04T02:14:15.422Z,85852.88
2023-05-04T02:16:42.369Z,85903.06
2023-05-04T02:19:11.813Z,85938.69
2023-05-04T02:21:40.062Z,85938.00
2023-05-04T02:24:07.684Z,85874.09
2023-05-04T02:26:36.317Z,85870.81
2023-05-04T02:29:03.979Z,85940.75
2023-05-04T02:31:30.995Z,85860.38
2023-05-04T02:33:57.988Z,85918.66
2023-05-04T02:36:24.923Z,85950.34
2023-05-04T02:38:52.109Z,85940.06
2023-05-04T02:41:19.103Z,85913.22
2023-05-04T02:43:46.112Z,85955.78
2023-05-04T02:46:13.248Z,85959.22
2023-05-04T02:48:40.199Z,85865.81
2023-05-04T02:51:07.465Z,85913.84
2023-05-04T02:53:34.481Z,85880.19
2023-05-04T02:56:01.540Z,85951.72
2023-05-04T02:58:28.550Z,85884.56
2023-05-04T03:00:56.813Z,85917.41
2023-05-04T03:03:23.824Z,85953.78
2023-05-04T03:05:50.778Z,85920.78
2023-05-04T03:08:17.918Z,85928.25
2023-05-04T03:10:44.938Z,85946.91
2023-05-04T03:13:12.037Z,85947.53
2023-05-04T03:15:39.534Z,85911.75
2023-05-04T03:18:06.938Z,85906.28
2023-05-04T03:20:34.565Z,85939.22
2023-05-04T03:23:01.874Z,85924.09
2023-05-04T03:25:28.932Z,85962.50
2023-05-04T03:27:56.291Z,85848.47
2023-05-04T03:30:24.095Z,85915.09
2023-05-04T03:32:51.111Z,85888.16
2023-05-04T03:35:24.275Z,85980.41
2023-05-04T03:37:52.625Z,85980.41
2023-05-04T03:40:23.237Z,85915.84
2023-05-04T03:42:52.856Z,85884.19
2023-05-04T03:45:22.189Z,85970.72
2023-05-04T03:47:49.248Z,85971.47
2023-05-04T03:50:16.307Z,85896.63
2023-05-04T03:52:43.327Z,85975.59
2023-05-04T03:55:11.476Z,85910.47
2023-05-04T03:57:38.787Z,85932.44
2023-05-04T04:00:09.370Z,85976.41
2023-05-04T04:02:42.168Z,85939.41
2023-05-04T04:05:20.259Z,85980.56
2023-05-04T04:07:49.816Z,85984.66
2023-05-04T04:10:17.059Z,85938.59
2023-05-04T04:12:44.164Z,85884.44
2023-05-04T04:15:11.938Z,85804.91
2023-05-04T04:17:38.985Z,85992.44
2023-05-04T04:20:06.935Z,85928.56
2023-05-04T04:22:34.198Z,85813.13
2023-05-04T04:25:01.478Z,85896.88
2023-05-04T04:27:28.365Z,85826.16
2023-05-04T04:29:55.342Z,85988.84
2023-05-04T04:32:22.857Z,86011.00
2023-05-04T04:34:49.807Z,86001.28
2023-05-04T04:37:16.840Z,86013.63
2023-05-04T04:39:43.850Z,86011.59
2023-05-04T04:42:11.829Z,85986.28
2023-05-04T04:44:39.460Z,85934.78
2023-05-04T04:47:06.896Z,85987.59
2023-05-04T04:49:34.102Z,86017.22
2023-05-04T04:52:02.076Z,85923.63
2023-05-04T04:54:29.313Z,85940.75
2023-05-04T04:56:56.357Z,85964.78
2023-05-04T04:59:25.046Z,85989.47
2023-05-04T05:01:53.272Z,85988.84
2023-05-04T05:04:22.185Z,85942.06
2023-05-04T05:06:49.895Z,85964.09
2023-05-04T05:09:16.996Z,85980.56
2023-05-04T05:11:44.045Z,86027.28
2023-05-04T05:14:11.059Z,86028.72
2023-05-04T05:16:38.155Z,85996.47
2023-05-04T05:19:05.353Z,86003.94
2023-05-04T05:21:32.501Z,85935.25
2023-05-04T05:23:59.493Z,86025.88
2023-05-04T05:26:26.489Z,86034.09
2023-05-04T05:28:53.487Z,86036.16
2023-05-04T05:31:20.516Z,85987.34
2023-05-04T05:33:47.574Z,86033.97
2023-05-04T05:36:14.758Z,85972.22
2023-05-04T05:38:41.812Z,85989.31
2023-05-04T05:41:09.983Z,86039.47
2023-05-04T05:43:38.801Z,86010.63
2023-05-04T05:46:06.964Z,86002.31
2023-05-04T05:48:34.286Z,86040.03
2023-05-04T05:51:01.296Z,85982.28
2023-05-04T05:53:28.400Z,86040.63
2023-05-04T05:55:55.467Z,86019.97
2023-05-04T05:58:22.507Z,86043.41
2023-05-04T06:00:49.466Z,85956.19
2023-05-04T06:03:16.553Z,86007.69
2023-05-04T06:05:43.717Z,86046.06
2023-05-04T06:08:10.716Z,85978.03
2023-05-04T06:10:37.769Z,85968.97
2023-05-04T06:13:04.885Z,86021.88
2023-05-04T06:15:32.034Z,85948.97
2023-05-04T06:17:59.028Z,85996.41
2023-05-04T06:20:26.335Z,86035.47
2023-05-04T06:22:53.231Z,85935.91
2023-05-04T06:25:20.181Z,85994.78
2023-05-04T06:27:47.578Z,85991.44
2023-05-04T06:30:15.284Z,86034.78
2023-05-04T06:32:42.734Z,86029.34
2023-05-04T06:35:10.708Z,86035.44
2023-05-04T06:37:38.067Z,86028.63
2023-05-04T06:40:30.220Z,86036.72
2023-05-04T06:42:57.336Z,85990.00
2023-05-04T06:45:24.406Z,86019.50
2023-05-04T06:47:52.563Z,85977.63
2023-05-04T06:50:19.574Z,85886.91
2023-05-04T06:52:46.776Z,85902.66
2023-05-04T06:55:14.092Z,86010.97
2023-05-04T06:57:41.140Z,86036.25
2023-05-04T07:00:09.131Z,85972.44
2023-05-04T07:02:36.304Z,85984.75
2023-05-04T07:05:04.080Z,86036.81
2023-05-04T07:07:31.430Z,86047.06
2023-05-04T07:09:58.695Z,86021.59
2023-05-04T07:12:26.513Z,86038.13
2023-05-04T07:14:53.469Z,86004.84
2023-05-04T07:17:22.119Z,85954.75
2023-05-04T07:19:52.472Z,86013.78
2023-05-04T07:22:21.092Z,86018.56
2023-05-04T07:24:48.080Z,86006.50
2023-05-04T07:27:15.083Z,86023.44
2023-05-04T07:29:42.132Z,85993.28
2023-05-04T07:32:09.352Z,86048.75
2023-05-04T07:34:44.992Z,85944.50
2023-05-04T07:37:13.405Z,86045.97
2023-05-04T07:39:40.479Z,86044.53
2023-05-04T07:42:08.493Z,86041.94
2023-05-04T07:44:35.512Z,86046.00
2023-05-04T07:47:02.778Z,85989.81
2023-05-04T07:49:29.784Z,86053.66
2023-05-04T07:51:56.813Z,86028.88
2023-05-04T07:54:23.898Z,86003.38
2023-05-04T07:56:51.105Z,85995.75
2023-05-04T07:59:22.008Z,86025.97
2023-05-04T08:01:49.058Z,85997.75
2023-05-04T08:04:16.104Z,86050.47
2023-05-04T08:06:43.268Z,86055.25
2023-05-04T08:09:10.526Z,86043.03
2023-05-04T08:11:39.439Z,86078.09
2023-05-04T08:14:06.802Z,85997.06
2023-05-04T08:16:34.075Z,86072.06
2023-05-04T08:19:01.630Z,85995.13
2023-05-04T08:21:29.011Z,86026.78
2023-05-04T08:23:56.203Z,86009.63
2023-05-04T08:26:23.852Z,85968.47
2023-05-04T08:28:51.175Z,86030.53
2023-05-04T08:31:21.644Z,85966.72
2023-05-04T08:33:48.661Z,86051.34
2023-05-04T08:36:18.848Z,86071.19
2023-05-04T08:38:45.831Z,86028.50
2023-05-04T08:41:13.103Z,86083.31
2023-05-04T08:43:40.163Z,86014.78
2023-05-04T08:46:07.829Z,86039.16
2023-05-04T08:48:35.425Z,85995.13
2023-05-04T08:51:04.687Z,86070.47
2023-05-04T08:53:35.644Z,86026.38
2023-05-04T08:56:07.949Z,86037.63
2023-05-04T08:58:38.319Z,85987.34
2023-05-04T09:01:08.422Z,86068.91
2023-05-04T09:03:36.895Z,86016.03
2023-05-04T09:06:04.349Z,86007.13
2023-05-04T09:08:32.742Z,86020.19
2023-05-04T09:10:59.852Z,85952.88
2023-05-04T09:13:27.495Z,86061.16
2023-05-04T09:15:56.064Z,86005.41
2023-05-04T09:18:23.520Z,86036.22
2023-05-04T09:20:50.680Z,86066.97
2023-05-04T09:23:18.413Z,86037.50
2023-05-04T09:25:55.854Z,86077.13
2023-05-04T09:28:35.884Z,86028.34
2023-05-04T09:31:04.319Z,86017.16
2023-05-04T09:33:32.246Z,86064.28
2023-05-04T09:36:18.783Z,86065.63
2023-05-04T09:38:46.268Z,86062.25
2023-05-04T09:41:13.408Z,86067.81
2023-05-04T09:43:41.901Z,86012.25
2023-05-04T09:46:18.703Z,85989.03
2023-05-04T09:48:57.032Z,85979.63
2023-05-04T09:51:26.870Z,85994.31
2023-05-04T09:53:54.152Z,86046.34
2023-05-04T09:56:29.916Z,86048.25
2023-05-04T09:58:58.868Z,85987.31
2023-05-04T10:01:30.019Z,86001.06
2023-05-04T10:03:57.254Z,86039.09
2023-05-04T10:06:24.961Z,86004.69
2023-05-04T10:08:52.214Z,86012.13
2023-05-04T10:11:20.363Z,85969.59
2023-05-04T10:13:48.901Z,86038.13
2023-05-04T10:16:48.719Z,86021.72
2023-05-04T10:19:24.904Z,86041.94
2023-05-04T10:22:08.129Z,86040.47
2023-05-04T10:24:59.893Z,86034.84
2023-05-04T10:27:44.566Z,86020.94
2023-05-04T10:30:13.360Z,85975.34
2023-05-04T10:32:41.372Z,86037.78
2023-05-04T10:35:10.234Z,86030.09
2023-05-04T10:37:37.979Z,86024.72
2023-05-04T10:40:07.866Z,85983.19
2023-05-04T10:42:44.989Z,85970.66
2023-05-04T10:45:13.206Z,86025.34
2023-05-04T10:47:43.281Z,86032.28
2023-05-04T10:50:16.181Z,85986.28
2023-05-04T10:52:52.345Z,86037.63
2023-05-04T10:55:21.122Z,85974.41
2023-05-04T10:57:52.010Z,86037.44
2023-05-04T11:00:19.413Z,86038.78
2023-05-04T11:02:47.616Z,85970.25
2023-05-04T11:05:19.673Z,85982.56
2023-05-04T11:07:50.836Z,86016.63
2023-05-04T11:10:26.119Z,86017.69
2023-05-04T11:13:02.748Z,86023.63
2023-05-04T11:15:32.979Z,85861.91
2023-05-04T11:18:00.190Z,86037.38
2023-05-04T11:20:28.050Z,85931.13
2023-05-04T11:22:55.130Z,85970.72
2023-05-04T11:25:29.087Z,85916.97
2023-05-04T11:27:57.025Z,85876.47
2023-05-04T11:30:32.731Z,86040.72
2023-05-04T11:33:00.780Z,86016.03
2023-05-04T11:35:28.067Z,85988.78
2023-05-04T11:37:55.972Z,86021.50
2023-05-04T11:40:24.552Z,85992.09
2023-05-04T11:42:56.661Z,86041.13
2023-05-04T11:45:28.304Z,86003.47
2023-05-04T11:47:56.866Z,86014.03
2023-05-04T11:50:25.472Z,86025.38
2023-05-04T11:53:07.369Z,85890.72
2023-05-04T11:55:35.082Z,86031.38
2023-05-04T11:58:07.959Z,85964.47
2023-05-04T12:00:50.099Z,85937.28
2023-05-04T12:03:27.962Z,85978.41
2023-05-04T12:06:03.622Z,86014.03
2023-05-04T12:08:35.051Z,86029.63
2023-05-04T12:11:20.656Z,86018.31
2023-05-04T12:13:49.442Z,86036.28
2023-05-04T12:16:20.703Z,85986.78
2023-05-04T12:18:48.844Z,86021.75
2023-05-04T12:21:21.636Z,86019.91
2023-05-04T12:23:48.742Z,86001.34
2023-05-04T12:26:18.940Z,85983.88
2023-05-04T12:28:47.880Z,86003.72
2023-05-04T12:31:15.294Z,85953.22
2023-05-04T12:33:42.339Z,85963.59
2023-05-04T12:36:10.481Z,85938.91
2023-05-04T12:38:38.152Z,86012.13
2023-05-04T12:41:06.420Z,86010.75
2023-05-04T12:43:33.860Z,85981.94
2023-05-04T12:46:00.984Z,85914.69
2023-05-04T12:48:32.978Z,86001.41
2023-05-04T12:51:01.273Z,85999.84
2023-05-04T12:53:31.582Z,85994.97
2023-05-04T12:56:02.454Z,85966.88
2023-05-04T12:58:30.063Z,85934.59
2023-05-04T13:00:58.134Z,85971.22
2023-05-04T13:03:25.382Z,85912.09
2023-05-04T13:05:54.655Z,85992.78
2023-05-04T13:08:21.615Z,85939.19
2023-05-04T13:10:48.660Z,85926.94
2023-05-04T13:13:18.120Z,85981.16
2023-05-04T13:15:45.514Z,85928.13
2023-05-04T13:18:13.203Z,85991.44
2023-05-04T13:20:41.012Z,85987.53
2023-05-04T13:23:08.100Z,85964.91
2023-05-04T13:25:35.343Z,85998.50
2023-05-04T13:28:02.415Z,85899.38
2023-05-04T13:30:29.877Z,85989.00
2023-05-04T13:32:57.054Z,85928.78
2023-05-04T13:35:24.359Z,85913.41
2023-05-04T13:37:51.716Z,85939.31
2023-05-04T13:40:18.695Z,85927.41
2023-05-04T13:42:45.671Z,85915.72
2023-05-04T13:45:13.309Z,85976.91
2023-05-04T13:47:40.834Z,85935.19
2023-05-04T13:50:08.559Z,85961.88
2023-05-04T13:52:36.398Z,85980.28
2023-05-04T13:55:04.052Z,85985.97
2023-05-04T13:57:31.218Z,85964.00
2023-05-04T14:00:07.039Z,85935.41
2023-05-04T14:02:37.832Z,85960.66
2023-05-04T14:05:05.426Z,85977.53
2023-05-04T14:07:34.594Z,85895.97
2023-05-04T14:10:01.553Z,85964.00
2023-05-04T14:12:29.078Z,85920.00
2023-05-04T14:14:57.466Z,85936.31
2023-05-04T14:17:24.848Z,85962.44
2023-05-04T14:19:51.928Z,85896.72
2023-05-04T14:22:18.984Z,85932.50
2023-05-04T14:24:45.989Z,85962.22
2023-05-04T14:27:12.946Z,85955.25
2023-05-04T14:29:39.962Z,86003.28
2023-05-04T14:32:07.546Z,85949.34
2023-05-04T14:34:34.728Z,85969.00
2023-05-04T14:37:01.885Z,85947.13
2023-05-04T14:39:28.997Z,85962.25
2023-05-04T14:41:59.801Z,85930.66
2023-05-04T14:44:28.871Z,86014.22
2023-05-04T14:46:56.123Z,85981.66
2023-05-04T14:49:35.684Z,85962.97
2023-05-04T14:52:04.063Z,85983.97
2023-05-04T14:54:31.087Z,85994.31
2023-05-04T14:56:59.201Z,86021.09
2023-05-04T14:59:26.366Z,86023.19
2023-05-04T15:01:55.397Z,86004.19
2023-05-04T15:04:23.402Z,85959.50
2023-05-04T15:06:50.468Z,86019.63
2023-05-04T15:09:17.468Z,86018.19
2023-05-04T15:11:44.495Z,86015.75
2023-05-04T15:14:11.505Z,85960.75
2023-05-04T15:16:38.726Z,86019.63
2023-05-04T15:19:06.666Z,86016.66
2023-05-04T15:21:34.133Z,85975.66
2023-05-04T15:24:01.156Z,85880.16
2023-05-04T15:26:29.312Z,86016.00
2023-05-04T15:28:56.402Z,85980.56
2023-05-04T15:31:23.494Z,85957.38
2023-05-04T15:33:50.473Z,86001.88
2023-05-04T15:36:17.530Z,85956.16
2023-05-04T15:38:44.534Z,85897.19
2023-05-04T15:41:11.704Z,85981.63
2023-05-04T15:43:38.797Z,85971.97
2023-05-04T15:46:05.752Z,85947.56
2023-05-04T15:48:32.872Z,85982.91
2023-05-04T15:51:00.017Z,85901.69
2023-05-04T15:53:27.679Z,85957.09
2023-05-04T15:55:54.868Z,86013.09
2023-05-04T15:58:21.792Z,85905.53
2023-05-04T16:00:48.816Z,86015.75
2023-05-04T16:03:16.101Z,85989.78
2023-05-04T16:05:43.930Z,85964.59
2023-05-04T16:08:11.625Z,85995.31
2023-05-04T16:10:38.663Z,85979.56
2023-05-04T16:13:05.920Z,86007.63
2023-05-04T16:15:33.219Z,85952.09
2023-05-04T16:18:00.500Z,85952.81
2023-05-04T16:20:29.023Z,85957.66
2023-05-04T16:22:56.131Z,86015.13
2023-05-04T16:25:23.121Z,85911.72
2023-05-04T16:27:50.165Z,86026.00
2023-05-04T16:30:17.356Z,86028.03
2023-05-04T16:32:44.947Z,86026.59
2023-05-04T16:35:12.165Z,85955.66
2023-05-04T16:37:39.698Z,86027.72
2023-05-04T16:40:16.906Z,86040.75
2023-05-04T16:42:44.270Z,86038.03
2023-05-04T16:45:13.629Z,85988.91
2023-05-04T16:47:44.290Z,85993.03
2023-05-04T16:50:12.956Z,86022.00
2023-05-04T16:52:40.175Z,86058.91
2023-05-04T16:55:11.368Z,86064.56
2023-05-04T16:57:39.154Z,85980.94
2023-05-04T17:00:07.388Z,86017.25
2023-05-04T17:02:35.591Z,86062.59
2023-05-04T17:05:06.503Z,86052.31
2023-05-04T17:07:34.324Z,86073.63
2023-05-04T17:10:01.599Z,86055.19
2023-05-04T17:12:29.130Z,86079.31
2023-05-04T17:14:56.193Z,86044.50
2023-05-04T17:17:23.290Z,86031.13
2023-05-04T17:19:50.602Z,86042.44
2023-05-04T17:22:17.662Z,86054.22
2023-05-04T17:24:45.743Z,86066.03
2023-05-04T17:27:13.176Z,86046.28
2023-05-04T17:29:41.225Z,86046.50
2023-05-04T17:32:08.489Z,86023.88
2023-05-04T17:34:36.170Z,86071.38
2023-05-04T17:37:03.320Z,86108.31
2023-05-04T17:39:31.843Z,86062.50
2023-05-04T17:41:59.212Z,86101.47
2023-05-04T17:44:28.282Z,86106.59
2023-05-04T17:46:55.286Z,86104.53
2023-05-04T17:49:22.273Z,86101.53
2023-05-04T17:51:49.587Z,86093.13
2023-05-04T17:54:16.978Z,86110.47
2023-05-04T17:56:44.180Z,86101.00
2023-05-04T17:59:11.253Z,86030.41
2023-05-04T18:01:38.458Z,86074.97
2023-05-04T18:04:05.613Z,86025.75
2023-05-04T18:06:32.986Z,86077.91
2023-05-04T18:09:01.201Z,86118.25
2023-05-04T18:11:28.422Z,86112.22
2023-05-04T18:13:56.710Z,86038.19
2023-05-04T18:16:24.839Z,86130.25
2023-05-04T18:18:52.352Z,86085.09
2023-05-04T18:21:19.483Z,86020.59
2023-05-04T18:23:46.994Z,86140.16
2023-05-04T18:26:23.375Z,86029.50
2023-05-04T18:28:50.515Z,86125.72
2023-05-04T18:31:17.814Z,86092.03
2023-05-04T18:33:45.395Z,86151.16
2023-05-04T18:36:12.474Z,86133.22
2023-05-04T18:38:39.807Z,86124.22
2023-05-04T18:41:07.296Z,86140.66
2023-05-04T18:43:34.330Z,86096.91
2023-05-04T18:46:10.378Z,86134.72
2023-05-04T18:48:38.283Z,86083.31
2023-05-04T18:51:05.450Z,86088.88
2023-05-04T18:53:32.455Z,86115.56
2023-05-04T18:56:10.476Z,86108.66
2023-05-04T18:58:38.274Z,86099.09
2023-05-04T19:01:09.009Z,86158.25
2023-05-04T19:03:36.161Z,86159.72
2023-05-04T19:06:03.307Z,86129.59
2023-05-04T19:08:30.358Z,86131.75
2023-05-04T19:11:00.619Z,86164.03
2023-05-04T19:13:27.649Z,86165.44
2023-05-04T19:15:54.688Z,86126.94
2023-05-04T19:18:22.279Z,86165.28
2023-05-04T19:20:49.478Z,86168.19
2023-05-04T19:23:16.745Z,86079.09
2023-05-04T19:25:45.116Z,86079.00
2023-05-04T19:28:12.376Z,86094.19
2023-05-04T19:30:40.308Z,86116.94
2023-05-04T19:33:08.656Z,86144.38
2023-05-04T19:35:36.063Z,86083.25
2023-05-04T19:38:06.306Z,85996.88
2023-05-04T19:40:34.388Z,86120.41
2023-05-04T19:43:01.544Z,86125.78
2023-05-04T19:45:28.628Z,86100.31
2023-05-04T19:47:55.891Z,86153.13
2023-05-04T19:50:22.985Z,86116.16
2023-05-04T19:52:50.926Z,86116.41
2023-05-04T19:55:18.036Z,86072.38
2023-05-04T19:57:45.190Z,86021.72
2023-05-04T20:00:13.369Z,86170.50
2023-05-04T20:02:40.551Z,86147.94
2023-05-04T20:05:17.620Z,86064.13
2023-05-04T20:07:44.658Z,86066.84
2023-05-04T20:10:12.500Z,86100.63
2023-05-04T20:12:39.989Z,86126.75
2023-05-04T20:15:07.479Z,86091.00
2023-05-04T20:17:34.744Z,86163.09
2023-05-04T20:20:12.149Z,86100.13
2023-05-04T20:22:39.150Z,86096.72
2023-05-04T20:25:06.362Z,86166.75
2023-05-04T20:27:33.392Z,86155.56
2023-05-04T20:30:00.448Z,86154.84
2023-05-04T20:32:28.306Z,86156.22
2023-05-04T20:34:55.333Z,85999.97
2023-05-04T20:37:22.338Z,86148.34
2023-05-04T20:39:52.630Z,86111.16
2023-05-04T20:42:19.791Z,86057.53
2023-05-04T20:44:46.920Z,86160.56
2023-05-04T20:47:14.196Z,86133.78
2023-05-04T20:49:41.235Z,86102.91
2023-05-04T20:52:08.290Z,86168.91
2023-05-04T20:54:35.269Z,86088.47
2023-05-04T20:57:02.591Z,86160.56
2023-05-04T20:59:29.654Z,86172.38
2023-05-04T21:01:56.721Z,86096.00
2023-05-04T21:04:29.819Z,86157.88
2023-05-04T21:06:57.778Z,86143.47
2023-05-04T21:09:24.834Z,86164.06
2023-05-04T21:11:51.780Z,86162.03
2023-05-04T21:14:18.821Z,86153.59
2023-05-04T21:16:45.853Z,86123.56
2023-05-04T21:19:12.831Z,86100.03
2023-05-04T21:21:41.575Z,86052.06
2023-05-04T21:24:13.305Z,86142.63
2023-05-04T21:26:41.416Z,86083.59
2023-05-04T21:29:15.009Z,86141.91
2023-05-04T21:31:42.502Z,86070.56
2023-05-04T21:34:09.629Z,86061.09
2023-05-04T21:36:36.842Z,86135.13
2023-05-04T21:39:06.319Z,86053.31
2023-05-04T21:41:33.405Z,86063.03
2023-05-04T21:44:00.471Z,85976.66
2023-05-04T21:46:27.569Z,86024.59
2023-05-04T21:48:54.643Z,85978.69
2023-05-04T21:51:21.725Z,86076.69
2023-05-04T21:53:48.694Z,86128.97
2023-05-04T21:56:15.844Z,86112.56
2023-05-04T21:58:43.497Z,86061.78
2023-05-04T22:01:17.101Z,86065.19
2023-05-04T22:03:44.798Z,86093.28
2023-05-04T22:06:12.533Z,86140.03
2023-05-04T22:08:39.924Z,86133.19
2023-05-04T22:11:06.926Z,86138.13
2023-05-04T22:13:33.870Z,86073.50
2023-05-04T22:16:00.978Z,86103.03
2023-05-04T22:18:27.960Z,86129.09
2023-05-04T22:20:55.013Z,86132.59
2023-05-04T22:23:21.934Z,86065.44
2023-05-04T22:25:48.858Z,86088.78
2023-05-04T22:28:16.284Z,86111.50
2023-05-04T22:30:43.253Z,86086.16
2023-05-04T22:33:10.402Z,86084.03
2023-05-04T22:35:37.413Z,86114.25
2023-05-04T22:38:05.181Z,86138.91
2023-05-04T22:40:32.372Z,86138.94
2023-05-04T22:42:59.518Z,86041.56
2023-05-04T22:45:26.477Z,86104.72
2023-05-04T22:47:53.617Z,86102.59
2023-05-04T22:50:20.615Z,86052.50
2023-05-04T22:52:50.763Z,85956.34
2023-05-04T22:55:17.873Z,86075.78
2023-05-04T22:57:44.769Z,86119.81
2023-05-04T23:00:12.370Z,86070.19
2023-05-04T23:02:39.782Z,86018.00
2023-05-04T23:05:07.614Z,86096.41
2023-05-04T23:07:34.656Z,85945.47
2023-05-04T23:10:02.208Z,85956.47
2023-05-04T23:12:29.414Z,86022.31
2023-05-04T23:14:57.038Z,86089.53
2023-05-04T23:17:24.070Z,86014.06
2023-05-04T23:19:51.151Z,86083.47
2023-05-04T23:22:18.139Z,86074.53
2023-05-04T23:24:48.221Z,86093.00
2023-05-04T23:27:15.103Z,86109.53
2023-05-04T23:29:42.110Z,86053.88
2023-05-04T23:32:09.171Z,86113.00
2023-05-04T23:34:36.529Z,86117.84
2023-05-04T23:37:03.599Z,86071.09
2023-05-04T23:39:30.648Z,86063.59
2023-05-04T23:41:57.648Z,86086.31
2023-05-04T23:44:24.627Z,86046.38
2023-05-04T23:46:51.678Z,86031.19
2023-05-04T23:49:18.859Z,86033.25
2023-05-04T23:51:45.884Z,86097.09
2023-05-04T23:54:14.348Z,86044.97
2023-05-04T23:56:41.495Z,86034.06
2023-05-04T23:59:08.503Z,86093.13
